LKBC weather

Public forecast

Using degrees Celsius for public forecast. Weather courtesy of forecast.io.

Closest aviation weather report (METAR) to Bechyně Airport

Closest report is Václav Havel Airport Prague, 50.5 nm (93.6 km) N. Retrieved 2020/08/13 01:30 UTC (4 minutes ago):

LKPR 130130Z 17003KT CAVOK 19/14 Q1017 NOSIG

Closest aviation forecast (TAF) to Bechyně Airport

Closest forecast is Václav Havel Airport Prague, 50.5 nm (93.6 km) N. Retrieved 2020-08-13 00:09 UTC (1 hour ago):

TAF LKPR 122300Z 1300/1406 VRB02KT CAVOK BECMG 1304/1306 15008KT TEMPO 1312/1320 30016KT 7000 SHRA SCT040CB